Time;durP1;ratioP1;P1;durP2;ratioP2;P2;SDS_P1;SDS_P2;PMS_P1;PMS_P2;Temp;Humidity;BMP_temperature;BMP_pressure;BME280_temperature;BME280_humidity;BME280_pressure;Samples;Min_cycle;Max_cycle;Signal;HPM_P1;HPM_P2
2023/03/20 00:01:22;;;;;;;6.70;6.10;;;19.30;55.70;;;;;;4973985;28;20212;-68
2023/03/20 00:03:50;;;;;;;7.38;6.68;;;19.40;55.80;;;;;;4956890;28;20202;-68
2023/03/20 00:06:25;;;;;;;6.70;6.07;;;19.30;55.70;;;;;;4972871;28;20209;-68
2023/03/20 00:08:53;;;;;;;6.85;6.28;;;19.30;55.70;;;;;;4972979;28;20194;-68
2023/03/20 00:11:32;;;;;;;6.63;6.13;;;19.30;55.70;;;;;;4972766;28;20213;-68
2023/03/20 00:14:02;;;;;;;6.43;5.93;;;19.40;55.70;;;;;;4972534;28;20236;-68
2023/03/20 00:16:44;;;;;;;6.47;5.95;;;19.30;55.60;;;;;;4988850;28;20193;-68
2023/03/20 00:19:29;;;;;;;6.53;5.93;;;19.30;55.60;;;;;;4988528;28;20197;-68
2023/03/20 00:21:56;;;;;;;6.18;5.63;;;19.30;55.60;;;;;;4972600;28;20224;-68
2023/03/20 00:24:23;;;;;;;6.32;5.82;;;19.30;55.60;;;;;;4972678;28;20237;-67
2023/03/20 00:26:50;;;;;;;5.88;5.38;;;19.30;55.60;;;;;;4956242;28;20280;-68
2023/03/20 00:29:27;;;;;;;6.65;6.07;;;19.30;55.50;;;;;;4972322;28;20185;-69
2023/03/20 00:31:54;;;;;;;5.85;5.25;;;19.30;55.50;;;;;;4972305;28;20304;-68
2023/03/20 00:34:25;;;;;;;5.93;5.45;;;19.30;55.50;;;;;;4972152;28;20190;-68
2023/03/20 00:36:52;;;;;;;6.32;5.82;;;19.30;55.50;;;;;;4988796;28;20285;-68
2023/03/20 00:39:19;;;;;;;6.53;5.93;;;19.30;55.50;;;;;;4956000;28;20571;-68
2023/03/20 00:41:55;;;;;;;6.15;5.65;;;19.30;55.50;;;;;;4956407;28;20224;-68
2023/03/20 00:44:21;;;;;;;6.22;5.72;;;19.30;55.40;;;;;;4981917;28;20642;-68
2023/03/20 00:46:53;;;;;;;5.95;5.43;;;19.30;55.40;;;;;;4988353;28;20182;-68
2023/03/20 00:49:25;;;;;;;6.07;5.57;;;19.30;55.40;;;;;;4956199;28;20676;-68
2023/03/20 00:51:51;;;;;;;5.50;5.03;;;19.30;55.40;;;;;;4988132;28;20205;-68
2023/03/20 00:54:17;;;;;;;5.65;5.18;;;19.30;55.40;;;;;;5004560;28;20224;-68
2023/03/20 00:56:55;;;;;;;5.60;5.10;;;19.30;55.40;;;;;;4956229;28;20561;-68
2023/03/20 00:59:27;;;;;;;5.15;4.75;;;19.30;55.40;;;;;;4965350;28;20221;-68
2023/03/20 01:01:53;;;;;;;5.65;5.15;;;19.30;55.40;;;;;;4956195;28;20181;-68
2023/03/20 01:04:20;;;;;;;5.78;5.28;;;19.30;55.50;;;;;;4971961;28;20213;-68
2023/03/20 01:06:47;;;;;;;4.90;4.50;;;19.30;55.40;;;;;;4957956;28;20217;-69
2023/03/20 01:09:12;;;;;;;6.05;5.55;;;19.30;55.40;;;;;;4984394;28;20181;-68
2023/03/20 01:11:40;;;;;;;4.57;4.25;;;19.30;55.40;;;;;;4975930;28;20201;-68
2023/03/20 01:14:14;;;;;;;5.20;4.80;;;19.30;55.40;;;;;;4975912;28;20296;-68
2023/03/20 01:16:41;;;;;;;5.45;4.93;;;19.30;55.40;;;;;;4977124;28;20228;-69
2023/03/20 01:19:13;;;;;;;5.18;4.78;;;19.30;55.40;;;;;;4959418;28;20178;-69
2023/03/20 01:21:41;;;;;;;4.55;4.15;;;19.30;55.40;;;;;;4959651;28;20214;-68
2023/03/20 01:24:07;;;;;;;5.20;4.80;;;19.30;55.40;;;;;;5008044;28;20574;-68
2023/03/20 01:26:40;;;;;;;5.72;5.22;;;19.30;55.40;;;;;;4975776;28;20233;-68
2023/03/20 01:29:21;;;;;;;5.57;4.93;;;19.30;55.40;;;;;;4959298;28;20281;-68
2023/03/20 01:31:49;;;;;;;4.60;4.20;;;19.30;55.40;;;;;;4991791;28;20216;-69
2023/03/20 01:34:17;;;;;;;4.88;4.47;;;19.30;55.40;;;;;;4984149;28;20185;-68
2023/03/20 01:36:56;;;;;;;4.60;4.20;;;19.30;55.40;;;;;;4959431;28;20185;-68
2023/03/20 01:39:34;;;;;;;4.80;4.40;;;19.30;55.40;;;;;;4984658;28;20186;-68
2023/03/20 01:42:04;;;;;;;4.88;4.47;;;19.30;55.40;;;;;;4975354;28;20213;-68
2023/03/20 01:44:33;;;;;;;4.70;4.30;;;19.30;55.40;;;;;;4975303;28;20217;-68
2023/03/20 01:47:05;;;;;;;4.95;4.47;;;19.30;55.40;;;;;;4975216;28;20196;-69
2023/03/20 01:50:17;;;;;;;4.22;3.92;;;19.30;55.40;;;;;;4958911;28;20197;-68
2023/03/20 01:52:44;;;;;;;4.53;4.13;;;19.30;55.40;;;;;;4959323;28;20200;-68
2023/03/20 01:55:10;;;;;;;3.85;3.55;;;19.30;55.40;;;;;;5007999;28;20218;-69
2023/03/20 01:57:38;;;;;;;4.43;4.03;;;19.30;55.40;;;;;;4959279;28;20220;-69
2023/03/20 02:00:09;;;;;;;4.13;3.83;;;19.30;55.40;;;;;;4974949;28;20228;-69
2023/03/20 02:02:46;;;;;;;3.97;3.67;;;19.30;55.40;;;;;;4975956;28;20255;-68
2023/03/20 02:05:26;;;;;;;4.38;4.03;;;19.30;55.40;;;;;;4960332;28;20245;-67
2023/03/20 02:08:15;;;;;;;3.97;3.67;;;19.30;55.40;;;;;;4976266;28;20205;-68
2023/03/20 02:10:45;;;;;;;4.43;4.03;;;19.30;55.40;;;;;;4991344;28;20208;-68
2023/03/20 02:13:21;;;;;;;4.20;3.83;;;19.30;55.40;;;;;;4983582;28;20192;-68
2023/03/20 02:16:10;;;;;;;4.50;4.10;;;19.30;55.40;;;;;;4966763;28;20192;-68
2023/03/20 02:18:57;;;;;;;4.35;3.85;;;19.30;55.40;;;;;;4983194;28;20197;-67
2023/03/20 02:21:54;;;;;;;4.53;4.13;;;19.30;56.00;;;;;;4958638;28;20206;-68
2023/03/20 02:24:48;;;;;;;4.13;3.72;;;19.30;55.30;;;;;;4974524;28;20243;-68
2023/03/20 02:28:08;;;;;;;4.10;3.80;;;19.20;55.30;;;;;;4958815;28;20249;-68
2023/03/20 02:31:12;;;;;;;3.92;3.63;;;19.30;55.30;;;;;;4974869;28;20205;-68
2023/03/20 02:34:07;;;;;;;4.05;3.75;;;19.30;55.30;;;;;;4974493;28;20236;-68
2023/03/20 02:37:13;;;;;;;3.97;3.67;;;19.20;55.20;;;;;;4981564;28;20285;-68
2023/03/20 02:40:32;;;;;;;3.95;3.58;;;19.30;55.30;;;;;;4982093;28;20182;-68
2023/03/20 02:43:24;;;;;;;4.03;3.63;;;19.30;55.30;;;;;;4987753;28;20190;-68
2023/03/20 02:46:09;;;;;;;3.22;3.03;;;19.30;55.30;;;;;;4974363;28;20369;-68
2023/03/20 02:49:17;;;;;;;3.67;3.40;;;19.20;55.20;;;;;;4974147;28;20189;-68
2023/03/20 02:52:14;;;;;;;3.70;3.40;;;19.20;55.20;;;;;;4957927;28;20206;-68
2023/03/20 02:54:55;;;;;;;3.58;3.30;;;19.20;55.20;;;;;;4975466;28;20194;-68
2023/03/20 02:57:28;;;;;;;3.88;3.58;;;19.20;55.10;;;;;;4990345;28;20265;-68
2023/03/20 03:00:08;;;;;;;3.58;3.28;;;19.30;55.20;;;;;;4957710;28;20236;-70
2023/03/20 03:02:49;;;;;;;3.50;3.20;;;19.20;55.20;;;;;;4958253;28;20252;-68
2023/03/20 03:05:24;;;;;;;3.13;2.92;;;19.20;55.10;;;;;;4972213;28;20213;-68
2023/03/20 03:07:56;;;;;;;3.60;3.30;;;19.20;55.20;;;;;;4990130;28;20220;-68
2023/03/20 03:10:39;;;;;;;3.50;3.20;;;19.20;55.10;;;;;;4965317;28;20224;-68
2023/03/20 03:13:14;;;;;;;3.55;3.30;;;19.20;55.10;;;;;;4973669;28;20244;-68
2023/03/20 03:15:46;;;;;;;3.85;3.55;;;19.20;55.10;;;;;;4973792;28;20196;-68
2023/03/20 03:18:21;;;;;;;3.28;3.05;;;19.20;55.10;;;;;;4957655;28;20209;-68
2023/03/20 03:20:54;;;;;;;3.50;3.20;;;19.20;55.10;;;;;;4957282;28;20209;-68
2023/03/20 03:23:34;;;;;;;3.35;3.15;;;19.20;55.10;;;;;;4980490;28;20189;-68
2023/03/20 03:26:05;;;;;;;3.25;3.05;;;19.20;55.00;;;;;;4957294;28;20209;-68
2023/03/20 03:28:45;;;;;;;2.97;2.78;;;19.20;55.00;;;;;;4972970;28;20196;-68
2023/03/20 03:31:14;;;;;;;3.33;3.08;;;19.20;55.00;;;;;;4957703;28;20283;-68
2023/03/20 03:33:47;;;;;;;2.95;2.75;;;19.20;55.00;;;;;;5006174;28;20186;-68
2023/03/20 03:36:58;;;;;;;3.13;2.92;;;19.20;55.00;;;;;;4957370;28;20220;-68
2023/03/20 03:39:51;;;;;;;3.45;3.17;;;19.20;55.00;;;;;;4998417;28;20196;-68
2023/03/20 03:42:29;;;;;;;3.17;2.97;;;19.20;55.00;;;;;;4989457;28;20197;-68
2023/03/20 03:45:18;;;;;;;2.80;2.60;;;19.20;55.00;;;;;;4957221;28;20217;-68
2023/03/20 03:48:00;;;;;;;3.20;3.00;;;19.20;55.00;;;;;;4973239;28;20185;-68
2023/03/20 03:51:01;;;;;;;3.17;2.97;;;19.20;55.00;;;;;;4949550;28;20325;-69
2023/03/20 03:53:35;;;;;;;2.65;2.45;;;19.20;55.00;;;;;;4968585;28;20194;-67
2023/03/20 03:56:07;;;;;;;3.03;2.83;;;19.20;54.90;;;;;;4972847;28;20190;-68
2023/03/20 03:58:43;;;;;;;3.08;2.88;;;19.20;54.90;;;;;;4957004;28;20193;-68
2023/03/20 04:01:13;;;;;;;2.65;2.45;;;19.20;54.90;;;;;;4956677;28;20268;-68
2023/03/20 04:03:49;;;;;;;2.80;2.60;;;19.20;55.00;;;;;;4956779;28;20196;-68
2023/03/20 04:06:16;;;;;;;3.05;2.85;;;19.20;54.90;;;;;;4956611;28;20209;-68
2023/03/20 04:08:43;;;;;;;2.53;2.40;;;19.20;55.50;;;;;;5005111;28;20563;-68
2023/03/20 04:11:17;;;;;;;2.85;2.65;;;19.20;55.00;;;;;;5004850;28;20217;-70
2023/03/20 04:13:47;;;;;;;2.78;2.58;;;19.20;54.90;;;;;;4972783;28;20195;-68
2023/03/20 04:16:15;;;;;;;2.75;2.55;;;19.20;54.90;;;;;;4956832;28;20186;-68
2023/03/20 04:18:44;;;;;;;2.70;2.50;;;19.20;55.00;;;;;;4972056;28;20188;-68
2023/03/20 04:21:14;;;;;;;2.80;2.60;;;19.20;54.90;;;;;;5005204;28;20212;-68
2023/03/20 04:23:41;;;;;;;2.83;2.63;;;19.20;54.90;;;;;;4956583;28;20189;-67
2023/03/20 04:26:07;;;;;;;2.72;2.53;;;19.20;54.90;;;;;;4956300;28;20240;-67
2023/03/20 04:28:34;;;;;;;2.83;2.63;;;19.20;54.90;;;;;;4956388;28;20186;-68
2023/03/20 04:31:34;;;;;;;2.58;2.38;;;19.20;54.90;;;;;;4954235;28;20324;-68
2023/03/20 04:34:15;;;;;;;2.70;2.50;;;19.20;54.90;;;;;;4958354;28;20188;-68
2023/03/20 04:36:49;;;;;;;2.55;2.35;;;19.20;54.80;;;;;;4972550;28;20669;-69
2023/03/20 04:39:17;;;;;;;2.63;2.42;;;19.20;54.90;;;;;;4988206;28;20189;-68
2023/03/20 04:41:42;;;;;;;2.65;2.45;;;19.20;54.90;;;;;;5021472;23;20228;-70
2023/03/20 04:44:08;;;;;;;2.50;2.40;;;19.20;54.90;;;;;;4995633;28;20283;-70
2023/03/20 04:46:34;;;;;;;3.20;2.55;;;19.20;54.80;;;;;;5012368;28;20235;-70
2023/03/20 04:49:04;;;;;;;2.58;2.38;;;19.20;54.90;;;;;;5006955;28;20180;-70
2023/03/20 04:51:29;;;;;;;2.53;2.33;;;19.20;54.90;;;;;;5008882;28;20255;-70
2023/03/20 04:53:56;;;;;;;2.40;2.30;;;19.20;54.90;;;;;;4992593;28;20610;-70
2023/03/20 04:56:22;;;;;;;2.65;2.45;;;19.20;54.90;;;;;;4975979;28;20201;-70
2023/03/20 04:58:49;;;;;;;2.60;2.40;;;19.20;54.90;;;;;;4976511;28;20196;-70
2023/03/20 05:01:17;;;;;;;2.25;2.15;;;19.20;54.80;;;;;;4976892;28;20216;-70
2023/03/20 05:03:43;;;;;;;2.45;2.25;;;19.20;54.80;;;;;;4992370;28;20312;-70
2023/03/20 05:06:10;;;;;;;2.58;2.38;;;19.20;54.80;;;;;;4976075;28;20213;-70
2023/03/20 05:08:39;;;;;;;2.15;2.05;;;19.20;54.80;;;;;;5008378;28;20189;-70
2023/03/20 05:11:06;;;;;;;2.20;2.10;;;19.20;54.80;;;;;;4991626;28;20622;-70
2023/03/20 05:13:52;;;;;;;2.17;2.08;;;19.20;54.80;;;;;;4992565;28;20189;-69
2023/03/20 05:16:39;;;;;;;2.00;1.90;;;19.20;54.80;;;;;;4990693;28;20193;-70
2023/03/20 05:19:25;;;;;;;2.38;2.28;;;19.20;54.80;;;;;;4999637;28;20193;-70
2023/03/20 05:22:11;;;;;;;2.20;2.10;;;19.20;54.80;;;;;;4978245;28;20199;-70
2023/03/20 05:24:39;;;;;;;2.22;2.13;;;19.20;54.80;;;;;;4992821;28;20221;-70
2023/03/20 05:27:24;;;;;;;2.13;2.03;;;19.20;54.80;;;;;;4992211;28;20203;-70
2023/03/20 05:30:02;;;;;;;2.33;2.17;;;19.20;54.80;;;;;;4989078;28;20581;-70
2023/03/20 05:32:51;;;;;;;2.08;1.98;;;19.20;54.80;;;;;;5002673;28;20187;-70
2023/03/20 05:35:25;;;;;;;2.20;2.00;;;19.20;54.80;;;;;;5007364;28;20206;-70
2023/03/20 05:38:03;;;;;;;2.00;1.90;;;19.10;54.70;;;;;;5007111;28;20743;-71
2023/03/20 05:40:42;;;;;;;2.25;2.15;;;19.10;54.70;;;;;;4978578;28;20220;-71
2023/03/20 05:43:18;;;;;;;2.13;2.03;;;19.20;54.80;;;;;;4992210;28;20192;-71
2023/03/20 05:46:04;;;;;;;2.10;2.00;;;19.10;54.70;;;;;;4973504;28;20214;-70
2023/03/20 05:48:48;;;;;;;2.30;2.10;;;19.20;54.70;;;;;;4992904;28;20243;-70
2023/03/20 05:51:27;;;;;;;2.00;1.90;;;19.10;54.70;;;;;;4992267;28;20207;-72
2023/03/20 05:54:22;;;;;;;2.55;2.00;;;19.20;54.70;;;;;;5028681;28;20198;-70
2023/03/20 05:57:17;;;;;;;2.42;2.10;;;19.20;54.70;;;;;;4983864;28;20284;-71
2023/03/20 05:59:58;;;;;;;2.45;2.05;;;19.10;54.60;;;;;;4999052;28;20192;-71
2023/03/20 06:02:37;;;;;;;2.20;2.00;;;19.10;54.60;;;;;;4996266;28;20219;-71
2023/03/20 06:05:13;;;;;;;2.08;1.98;;;19.20;54.70;;;;;;5011739;28;20209;-71
2023/03/20 06:07:46;;;;;;;1.65;1.55;;;19.20;54.70;;;;;;4994463;28;20691;-71
2023/03/20 06:10:14;;;;;;;2.03;1.92;;;19.20;54.70;;;;;;4976674;28;20217;-71
2023/03/20 06:12:41;;;;;;;2.05;1.95;;;19.20;54.70;;;;;;4994098;28;20181;-71
2023/03/20 06:15:07;;;;;;;1.60;1.50;;;19.20;54.70;;;;;;5001833;28;20632;-71
2023/03/20 06:17:38;;;;;;;2.00;1.90;;;19.10;54.60;;;;;;4993221;28;20192;-71
2023/03/20 06:20:04;;;;;;;2.10;1.90;;;19.10;54.60;;;;;;5001139;28;20185;-71
2023/03/20 06:22:31;;;;;;;2.30;1.90;;;19.20;55.20;;;;;;4984632;28;20200;-71
2023/03/20 06:24:57;;;;;;;2.88;2.13;;;19.20;54.60;;;;;;4988814;28;20245;-71
2023/03/20 06:27:30;;;;;;;1.75;1.65;;;19.10;54.60;;;;;;5008745;28;20181;-71
2023/03/20 06:29:56;;;;;;;2.65;1.90;;;19.20;54.60;;;;;;4977172;28;20622;-71
2023/03/20 06:32:28;;;;;;;2.10;1.90;;;19.20;54.60;;;;;;4976931;28;20657;-71
2023/03/20 06:34:57;;;;;;;2.17;1.90;;;19.20;54.60;;;;;;4977551;28;20189;-71
2023/03/20 06:37:23;;;;;;;1.92;1.83;;;19.20;54.60;;;;;;4993130;28;20196;-71
2023/03/20 06:39:50;;;;;;;2.03;1.92;;;19.10;54.60;;;;;;4993289;28;20661;-71
2023/03/20 06:42:17;;;;;;;1.90;1.80;;;19.10;54.60;;;;;;4975452;28;20226;-71
2023/03/20 06:44:46;;;;;;;2.30;2.10;;;19.20;54.70;;;;;;4993101;28;20215;-71
2023/03/20 06:47:14;;;;;;;2.33;2.10;;;19.20;54.60;;;;;;4992937;28;20200;-71
2023/03/20 06:49:41;;;;;;;1.95;1.85;;;19.20;54.60;;;;;;5001033;28;20199;-72
2023/03/20 06:52:13;;;;;;;2.28;1.83;;;19.10;54.60;;;;;;5004691;28;20587;-71
2023/03/20 06:54:40;;;;;;;2.22;2.03;;;19.20;54.70;;;;;;4973735;28;20193;-71
2023/03/20 06:57:06;;;;;;;2.05;1.95;;;19.20;54.60;;;;;;5005726;28;20203;-70
2023/03/20 06:59:32;;;;;;;2.33;2.00;;;19.20;54.60;;;;;;5008821;28;20185;-71
2023/03/20 07:01:58;;;;;;;1.92;1.83;;;19.20;54.70;;;;;;5009117;28;20248;-70
2023/03/20 07:04:25;;;;;;;2.30;2.00;;;19.20;54.70;;;;;;5000467;28;20186;-71
2023/03/20 07:06:54;;;;;;;2.20;2.00;;;19.20;54.60;;;;;;4989533;28;20193;-70
2023/03/20 07:09:23;;;;;;;1.92;1.83;;;19.20;54.60;;;;;;5007329;28;20196;-71
2023/03/20 07:11:49;;;;;;;2.63;2.08;;;19.20;54.60;;;;;;4973246;28;20284;-71
2023/03/20 07:14:15;;;;;;;1.75;1.65;;;19.20;54.70;;;;;;5006347;28;20605;-71
2023/03/20 07:16:52;;;;;;;2.20;2.00;;;19.20;54.60;;;;;;4992729;28;20177;-71
2023/03/20 07:19:18;;;;;;;1.83;1.73;;;19.20;54.60;;;;;;4991929;28;20699;-70
2023/03/20 07:21:48;;;;;;;2.20;2.00;;;19.10;54.60;;;;;;4992612;28;20200;-71
2023/03/20 07:24:16;;;;;;;2.22;1.58;;;19.10;54.60;;;;;;4976354;28;20195;-71
2023/03/20 07:26:42;;;;;;;3.30;1.52;;;19.20;54.70;;;;;;4992505;28;20220;-71
2023/03/20 07:29:08;;;;;;;1.85;1.75;;;19.20;54.70;;;;;;4972745;28;20568;-71
2023/03/20 07:31:35;;;;;;;2.08;1.98;;;19.20;54.70;;;;;;4968318;28;20744;-71
2023/03/20 07:34:11;;;;;;;2.25;2.05;;;19.20;54.70;;;;;;5008538;28;20201;-71
2023/03/20 07:36:40;;;;;;;1.90;1.77;;;19.20;54.70;;;;;;4976479;28;20181;-71
2023/03/20 07:39:08;;;;;;;2.10;1.90;;;19.20;54.70;;;;;;4975892;28;20288;-71
2023/03/20 07:41:36;;;;;;;1.70;1.60;;;19.20;54.60;;;;;;4984009;28;20248;-71
2023/03/20 07:44:07;;;;;;;1.73;1.63;;;19.20;54.70;;;;;;4992095;28;20201;-71
2023/03/20 07:46:51;;;;;;;2.03;1.80;;;19.20;54.70;;;;;;4978487;28;20216;-70
2023/03/20 07:49:17;;;;;;;2.20;2.00;;;19.20;54.60;;;;;;4991574;28;20189;-71
2023/03/20 07:51:46;;;;;;;1.63;1.52;;;19.20;54.60;;;;;;4999843;28;20201;-71
2023/03/20 07:54:12;;;;;;;2.03;1.92;;;19.20;54.60;;;;;;4995188;28;20220;-71
2023/03/20 07:56:38;;;;;;;2.03;1.92;;;19.20;54.60;;;;;;4991952;28;20185;-71
2023/03/20 07:59:04;;;;;;;2.35;1.70;;;19.20;54.60;;;;;;4991486;28;20189;-71
2023/03/20 08:01:30;;;;;;;1.92;1.73;;;19.20;54.60;;;;;;4991520;28;20700;-71
2023/03/20 08:03:56;;;;;;;3.67;1.63;;;19.20;54.70;;;;;;4992968;28;20284;-71
2023/03/20 08:06:21;;;;;;;2.53;1.67;;;19.20;54.60;;;;;;4975131;28;20212;-71
2023/03/20 08:08:50;;;;;;;1.90;1.80;;;19.20;54.60;;;;;;4991275;28;20275;-71
2023/03/20 08:11:16;;;;;;;1.40;1.33;;;19.20;54.60;;;;;;4973020;28;20285;-71
2023/03/20 08:13:42;;;;;;;1.70;1.60;;;19.20;54.60;;;;;;4972244;28;20276;-71
2023/03/20 08:16:08;;;;;;;1.65;1.55;;;19.20;54.60;;;;;;4987334;28;20683;-70
2023/03/20 08:18:34;;;;;;;2.95;1.90;;;19.20;54.60;;;;;;4992098;28;20193;-71
2023/03/20 08:21:00;;;;;;;1.60;1.50;;;19.20;54.60;;;;;;4975215;28;20224;-71
2023/03/20 08:23:26;;;;;;;1.80;1.70;;;19.20;54.70;;;;;;4991402;28;20193;-71
2023/03/20 08:25:56;;;;;;;1.73;1.63;;;19.20;54.60;;;;;;4992552;28;20213;-71
2023/03/20 08:28:24;;;;;;;1.60;1.50;;;19.20;54.60;;;;;;5007509;28;20193;-71
2023/03/20 08:30:50;;;;;;;1.88;1.70;;;19.20;54.60;;;;;;4970247;28;20216;-71
2023/03/20 08:33:17;;;;;;;1.55;1.45;;;19.20;54.60;;;;;;4989430;28;20196;-71
2023/03/20 08:35:53;;;;;;;1.83;1.60;;;19.20;54.60;;;;;;4991334;28;20189;-71
2023/03/20 08:38:19;;;;;;;1.70;1.52;;;19.20;54.60;;;;;;4974944;28;20202;-71
2023/03/20 08:40:44;;;;;;;1.83;1.70;;;19.20;54.60;;;;;;4991037;28;20228;-71
2023/03/20 08:43:10;;;;;;;1.60;1.50;;;19.20;54.60;;;;;;4991136;28;20235;-71
2023/03/20 08:45:36;;;;;;;1.73;1.63;;;19.20;54.60;;;;;;4990836;28;20244;-71
2023/03/20 08:48:02;;;;;;;1.92;1.70;;;19.20;54.60;;;;;;4971256;28;20182;-71
2023/03/20 08:50:28;;;;;;;1.90;1.80;;;19.20;54.60;;;;;;5006148;28;20208;-71
2023/03/20 08:52:54;;;;;;;1.55;1.45;;;19.20;54.60;;;;;;4975199;28;20192;-71
2023/03/20 08:55:20;;;;;;;1.58;1.48;;;19.20;54.60;;;;;;4974790;28;20231;-71
2023/03/20 08:57:46;;;;;;;1.90;1.55;;;19.20;54.60;;;;;;4990161;28;20189;-71
2023/03/20 09:00:15;;;;;;;1.80;1.50;;;19.20;54.60;;;;;;4990974;28;20303;-71
2023/03/20 09:02:42;;;;;;;1.50;1.40;;;19.30;54.70;;;;;;4983299;28;20228;-71
2023/03/20 09:05:09;;;;;;;2.20;1.83;;;19.20;54.60;;;;;;4991998;28;20212;-71
2023/03/20 09:07:35;;;;;;;1.42;1.33;;;19.20;54.60;;;;;;4991889;28;20200;-71
2023/03/20 09:10:03;;;;;;;1.40;1.30;;;19.20;54.60;;;;;;4974715;28;20207;-71
2023/03/20 09:12:30;;;;;;;1.30;1.23;;;19.20;54.60;;;;;;4974536;28;20239;-71
2023/03/20 09:14:56;;;;;;;1.50;1.40;;;19.20;54.60;;;;;;4991003;28;20209;-71
2023/03/20 09:17:22;;;;;;;1.40;1.30;;;19.20;54.60;;;;;;4990742;28;20189;-71
2023/03/20 09:19:48;;;;;;;1.83;1.30;;;19.20;54.60;;;;;;4990579;28;20189;-70
2023/03/20 09:22:16;;;;;;;1.42;1.33;;;19.30;54.60;;;;;;4987645;28;20200;-70
2023/03/20 09:24:43;;;;;;;1.70;1.60;;;19.30;54.60;;;;;;4983818;28;20201;-71
2023/03/20 09:27:09;;;;;;;1.60;1.50;;;19.20;54.50;;;;;;4991596;28;20188;-71
2023/03/20 09:29:35;;;;;;;1.40;1.30;;;19.20;54.50;;;;;;4994313;28;20189;-71
2023/03/20 09:32:01;;;;;;;1.63;1.23;;;19.30;54.60;;;;;;4994531;28;20197;-71
2023/03/20 09:34:26;;;;;;;1.50;1.40;;;19.30;54.60;;;;;;4978200;28;20197;-71
2023/03/20 09:36:52;;;;;;;1.27;1.17;;;19.20;54.50;;;;;;4994482;28;20196;-71
2023/03/20 09:39:18;;;;;;;1.30;1.20;;;19.20;54.50;;;;;;4977882;28;20239;-71
2023/03/20 09:41:48;;;;;;;1.50;1.40;;;19.30;54.60;;;;;;4994530;28;20222;-71
2023/03/20 09:44:53;;;;;;;1.40;1.30;;;19.30;54.60;;;;;;4974975;28;20193;-71
2023/03/20 09:47:37;;;;;;;1.38;1.15;;;19.20;54.50;;;;;;4991125;28;20200;-71
2023/03/20 09:50:24;;;;;;;1.30;1.20;;;19.20;54.50;;;;;;4978190;28;20199;-71
2023/03/20 09:53:01;;;;;;;1.30;1.20;;;19.20;54.40;;;;;;4978115;28;20611;-71
2023/03/20 09:55:36;;;;;;;1.40;1.30;;;19.30;54.50;;;;;;4975880;28;20200;-71
2023/03/20 09:58:35;;;;;;;1.05;1.00;;;19.30;54.50;;;;;;4963924;28;20189;-71
2023/03/20 10:01:05;;;;;;;1.00;1.00;;;19.30;54.50;;;;;;4989034;28;20224;-71
2023/03/20 10:03:54;;;;;;;1.20;1.10;;;19.30;54.50;;;;;;4993980;28;20193;-71
2023/03/20 10:06:20;;;;;;;1.48;1.38;;;19.20;54.40;;;;;;5010190;28;20225;-71
2023/03/20 10:08:46;;;;;;;1.35;1.15;;;19.30;54.50;;;;;;4995282;28;20273;-71
2023/03/20 10:11:40;;;;;;;1.30;1.20;;;19.30;54.50;;;;;;4994567;28;20287;-71
2023/03/20 10:15:04;;;;;;;1.20;1.10;;;19.30;54.50;;;;;;4992006;28;20193;-71
2023/03/20 10:17:43;;;;;;;1.40;1.30;;;19.30;54.40;;;;;;4959905;28;20185;-70
2023/03/20 10:20:12;;;;;;;1.15;1.08;;;19.30;54.40;;;;;;4954055;29;20218;-71
2023/03/20 10:22:56;;;;;;;1.38;1.27;;;19.30;54.40;;;;;;4993434;28;20192;-71
2023/03/20 10:25:36;;;;;;;1.92;1.15;;;19.30;54.40;;;;;;4994838;28;20205;-71
2023/03/20 10:28:29;;;;;;;1.23;1.20;;;19.30;54.30;;;;;;4995136;28;20193;-71
2023/03/20 10:31:04;;;;;;;1.13;1.08;;;19.30;54.30;;;;;;4977991;28;20208;-71
2023/03/20 10:33:49;;;;;;;1.42;1.33;;;19.30;54.30;;;;;;4991833;28;20249;-71
2023/03/20 10:36:49;;;;;;;1.10;1.00;;;19.40;54.40;;;;;;5010137;28;20184;-71
2023/03/20 10:39:53;;;;;;;1.10;1.00;;;19.30;54.20;;;;;;4993363;28;20196;-71
2023/03/20 10:42:29;;;;;;;1.08;1.00;;;19.40;54.30;;;;;;5045568;22;20241;-70
2023/03/20 10:45:06;;;;;;;1.77;1.38;;;19.30;54.20;;;;;;5032772;28;20229;-69
2023/03/20 10:47:39;;;;;;;1.20;1.10;;;19.30;54.20;;;;;;5026389;28;20278;-70
2023/03/20 10:50:16;;;;;;;0.95;0.90;;;19.30;54.20;;;;;;5033306;28;20187;-68
2023/03/20 10:52:47;;;;;;;1.63;1.17;;;19.30;54.20;;;;;;5013616;28;20214;-69
2023/03/20 10:55:31;;;;;;;1.15;1.05;;;19.40;54.30;;;;;;5012922;28;20200;-69
2023/03/20 10:58:21;;;;;;;1.00;1.00;;;19.30;54.20;;;;;;5005997;28;20246;-69
2023/03/20 11:00:48;;;;;;;1.50;1.27;;;19.30;54.80;;;;;;5010726;28;20239;-71
2023/03/20 11:03:30;;;;;;;1.13;1.00;;;19.30;54.20;;;;;;5012530;28;20200;-69
2023/03/20 11:06:16;;;;;;;1.10;1.02;;;19.40;54.30;;;;;;5012716;28;20253;-70
2023/03/20 11:08:49;;;;;;;1.13;1.10;;;19.30;54.20;;;;;;5012270;28;20199;-69
2023/03/20 11:11:23;;;;;;;0.98;0.93;;;19.30;54.20;;;;;;5012210;28;20243;-70
2023/03/20 11:13:49;;;;;;;0.95;0.90;;;19.30;54.10;;;;;;5010270;28;20223;-69
2023/03/20 11:16:23;;;;;;;1.23;1.08;;;19.30;54.20;;;;;;5010388;28;20236;-70
2023/03/20 11:18:52;;;;;;;0.90;0.90;;;19.30;54.20;;;;;;5011760;28;20577;-69
2023/03/20 11:21:25;;;;;;;1.20;1.10;;;19.30;54.10;;;;;;5011958;28;20208;-69
2023/03/20 11:23:51;;;;;;;1.50;0.90;;;19.30;54.20;;;;;;4993297;28;20196;-70
2023/03/20 11:26:33;;;;;;;0.80;0.80;;;19.30;54.20;;;;;;5011965;28;20223;-70
2023/03/20 11:28:59;;;;;;;0.90;0.90;;;19.30;54.10;;;;;;4989392;28;20323;-70
2023/03/20 11:31:34;;;;;;;1.25;1.15;;;19.30;54.10;;;;;;5012070;28;20220;-70
2023/03/20 11:34:03;;;;;;;1.02;0.90;;;19.30;54.00;;;;;;5012304;28;20271;-70
2023/03/20 11:36:39;;;;;;;1.08;1.02;;;19.30;54.10;;;;;;5012497;28;20694;-69
2023/03/20 11:39:13;;;;;;;1.13;0.90;;;19.30;54.10;;;;;;4995656;28;20188;-70
2023/03/20 11:41:51;;;;;;;0.90;0.90;;;19.30;54.10;;;;;;4995643;28;20286;-69
2023/03/20 11:44:24;;;;;;;0.90;0.90;;;19.30;54.10;;;;;;5012137;28;20621;-69
2023/03/20 11:47:04;;;;;;;0.90;0.90;;;19.30;54.10;;;;;;5009467;28;20298;-70
2023/03/20 11:49:44;;;;;;;0.82;0.82;;;19.30;54.00;;;;;;5011795;28;20196;-70
2023/03/20 11:52:15;;;;;;;1.00;1.00;;;19.30;54.00;;;;;;5013126;28;20215;-70
2023/03/20 11:54:53;;;;;;;0.93;0.93;;;19.30;54.00;;;;;;5011741;28;20655;-70
2023/03/20 11:57:39;;;;;;;1.45;0.90;;;19.30;54.00;;;;;;5011766;28;20187;-70
2023/03/20 12:00:22;;;;;;;1.20;1.08;;;19.30;54.00;;;;;;5011859;28;20200;-69
2023/03/20 12:02:49;;;;;;;1.00;1.00;;;19.30;54.00;;;;;;5010906;28;20270;-70
2023/03/20 12:05:33;;;;;;;1.63;0.80;;;19.30;54.00;;;;;;5007990;28;20216;-69
2023/03/20 12:08:07;;;;;;;0.95;0.90;;;19.30;54.00;;;;;;5008444;28;20246;-69
2023/03/20 12:10:43;;;;;;;0.82;0.82;;;19.30;54.00;;;;;;4997748;28;20283;-71
2023/03/20 12:13:23;;;;;;;0.90;0.90;;;19.40;54.00;;;;;;5010361;28;20262;-70
2023/03/20 12:16:00;;;;;;;1.10;1.00;;;19.30;54.00;;;;;;5013439;28;20232;-70
2023/03/20 12:18:35;;;;;;;1.05;0.95;;;19.30;54.00;;;;;;5010068;28;20195;-71
2023/03/20 12:21:10;;;;;;;1.02;0.93;;;19.40;54.10;;;;;;5008806;28;20238;-70
2023/03/20 12:23:56;;;;;;;0.88;0.88;;;19.30;54.00;;;;;;5013154;28;20576;-69
2023/03/20 12:27:14;;;;;;;0.80;0.80;;;19.40;54.00;;;;;;5009017;28;20240;-70
2023/03/20 12:29:51;;;;;;;0.80;0.80;;;19.30;53.90;;;;;;5010365;28;20188;-71
2023/03/20 12:32:45;;;;;;;0.98;0.90;;;19.30;54.00;;;;;;4986845;28;20205;-69
2023/03/20 12:35:18;;;;;;;0.90;0.90;;;19.30;53.90;;;;;;5011145;28;20580;-70
2023/03/20 12:37:44;;;;;;;0.98;0.90;;;19.40;54.00;;;;;;5011369;28;20226;-70
2023/03/20 12:40:19;;;;;;;0.90;0.90;;;19.30;53.90;;;;;;5011375;28;20264;-71
2023/03/20 12:43:08;;;;;;;0.80;0.80;;;19.40;54.00;;;;;;4993487;28;20223;-69
2023/03/20 12:45:45;;;;;;;0.77;0.77;;;19.40;54.00;;;;;;5009502;28;20216;-70
2023/03/20 12:48:50;;;;;;;1.00;1.00;;;19.40;54.00;;;;;;5012212;28;20678;-70
2023/03/20 12:51:53;;;;;;;1.13;0.80;;;19.40;54.00;;;;;;5009528;28;20215;-70
2023/03/20 12:55:06;;;;;;;2.35;1.00;;;19.40;54.00;;;;;;5005801;28;20576;-70
2023/03/20 12:58:03;;;;;;;0.70;0.70;;;19.40;54.00;;;;;;4980370;28;20200;-70
2023/03/20 13:00:41;;;;;;;1.45;0.95;;;19.30;53.90;;;;;;5007334;28;20223;-70
2023/03/20 13:03:47;;;;;;;1.00;0.95;;;19.40;54.00;;;;;;5014100;28;20349;-70
2023/03/20 13:06:45;;;;;;;1.25;0.95;;;19.40;54.00;;;;;;5014195;28;20250;-70
2023/03/20 13:09:56;;;;;;;0.82;0.70;;;19.40;54.00;;;;;;4992140;28;20730;-70
2023/03/20 13:13:01;;;;;;;0.95;0.95;;;19.40;54.00;;;;;;4993659;28;20208;-71
2023/03/20 13:16:01;;;;;;;1.40;0.85;;;19.40;54.00;;;;;;5013335;28;20184;-70
2023/03/20 13:18:54;;;;;;;0.77;0.77;;;19.40;54.00;;;;;;5012427;28;20253;-71
2023/03/20 13:21:33;;;;;;;0.80;0.80;;;19.40;54.00;;;;;;5011972;28;20294;-70
2023/03/20 13:24:26;;;;;;;0.95;0.95;;;19.40;54.10;;;;;;5013895;28;20194;-70
2023/03/20 13:27:03;;;;;;;0.93;0.80;;;19.40;54.00;;;;;;5013415;28;20242;-69
2023/03/20 13:30:21;;;;;;;1.00;0.90;;;19.50;54.10;;;;;;5013908;28;20259;-70
2023/03/20 13:33:23;;;;;;;1.73;0.90;;;19.40;54.00;;;;;;4988556;28;20220;-70